Time;durP1;ratioP1;P1;durP2;ratioP2;P2;SDS_P1;SDS_P2;PMS_P1;PMS_P2;Temp;Humidity;BMP_temperature;BMP_pressure;BME280_temperature;BME280_humidity;BME280_pressure;Samples;Min_cycle;Max_cycle;Signal;HPM_P1;HPM_P2
2023/12/11 00:12:00;;;;;;;76.80;27.40;;;;;;;5.09;94.59;99121.70;683090;1263;139659;-80
2023/12/11 00:27:38;;;;;;;74.20;28.40;;;;;;;5.12;95.82;99100.80;682619;1259;139579;-80
2023/12/11 00:43:15;;;;;;;63.50;23.80;;;;;;;5.18;96.22;99091.80;682752;1263;139913;-81
2023/12/11 00:58:52;;;;;;;54.50;21.50;;;;;;;5.25;97.28;99073.85;682735;1259;139739;-80
2023/12/11 01:14:29;;;;;;;47.00;19.60;;;;;;;5.63;96.85;99057.08;682769;1257;139010;-81
2023/12/11 01:30:06;;;;;;;54.70;23.80;;;;;;;5.57;97.76;99053.80;675232;1261;10138424;-82
2023/12/11 01:45:43;;;;;;;53.50;23.40;;;;;;;5.74;98.27;99043.46;682710;1257;140211;-82
2023/12/11 02:01:21;;;;;;;62.50;23.90;;;;;;;5.50;99.09;99034.30;682722;1257;139308;-82
2023/12/11 02:16:59;;;;;;;68.20;28.30;;;;;;;5.41;99.99;99021.34;682958;1257;138802;-82
2023/12/11 02:32:35;;;;;;;66.00;25.60;;;;;;;5.60;100.00;98989.16;682842;1263;139402;-84
2023/12/11 02:48:14;;;;;;;68.60;27.00;;;;;;;5.71;100.00;98975.02;682886;1257;139575;-84
2023/12/11 03:03:51;;;;;;;55.90;22.00;;;;;;;5.82;100.00;98966.65;682835;1262;139216;-82
2023/12/11 03:19:28;;;;;;;54.80;23.00;;;;;;;5.77;100.00;98960.10;682796;1262;139521;-83
2023/12/11 03:35:05;;;;;;;51.00;21.90;;;;;;;5.81;100.00;98953.99;682922;1261;139664;-83
2023/12/11 03:50:42;;;;;;;50.20;22.30;;;;;;;5.81;100.00;98948.79;682847;1258;139987;-83
2023/12/11 04:06:20;;;;;;;67.40;30.30;;;;;;;5.98;100.00;98929.31;682900;1260;139107;-82
2023/12/11 04:21:58;;;;;;;51.20;21.90;;;;;;;6.16;99.87;98915.38;682637;1262;139113;-82
2023/12/11 04:37:35;;;;;;;44.30;18.70;;;;;;;6.02;99.72;98886.05;682600;1262;139243;-84
2023/12/11 04:53:12;;;;;;;39.50;18.60;;;;;;;5.93;99.71;98877.67;682939;1259;138873;-83
2023/12/11 05:08:49;;;;;;;42.20;19.90;;;;;;;5.79;99.78;98878.77;682704;1260;139565;-82
2023/12/11 05:24:26;;;;;;;48.00;18.30;;;;;;;5.77;100.00;98872.01;682507;1260;139355;-83
2023/12/11 05:40:03;;;;;;;42.70;18.10;;;;;;;5.84;100.00;98870.85;682604;1259;139887;-84
2023/12/11 05:55:52;;;;;;;82.40;37.70;;;;;;;5.83;100.00;98858.23;682469;1259;139896;-83
2023/12/11 06:11:29;;;;;;;224.60;76.70;;;;;;;5.82;100.00;98844.67;682723;1257;139303;-83
2023/12/11 06:27:06;;;;;;;63.10;27.80;;;;;;;5.86;100.00;98824.48;682694;1259;140639;-84
2023/12/11 06:42:45;;;;;;;56.10;21.70;;;;;;;5.75;99.96;98812.13;682745;1259;139134;-85
2023/12/11 06:58:22;;;;;;;37.50;19.30;;;;;;;5.75;100.00;98795.30;682615;1262;140101;-85
2023/12/11 07:14:00;;;;;;;261.00;166.00;;;;;;;6.00;100.00;98790.95;682854;1259;140407;-85
2023/12/11 07:29:37;;;;;;;154.60;59.30;;;;;;;5.99;100.00;98778.73;682648;1262;140368;-85
2023/12/11 07:45:19;;;;;;;41.00;24.30;;;;;;;6.06;100.00;98759.66;682618;1259;140675;-85
2023/12/11 08:00:55;;;;;;;161.20;62.60;;;;;;;6.21;99.98;98727.89;682864;1260;139753;-84
2023/12/11 08:16:33;;;;;;;122.10;45.20;;;;;;;6.21;99.46;98702.19;682879;1258;139771;-85
2023/12/11 08:32:11;;;;;;;73.40;27.20;;;;;;;6.14;98.81;98692.27;683076;1260;139655;-85
2023/12/11 08:47:51;;;;;;;48.90;22.90;;;;;;;6.04;99.61;98674.11;682417;1263;139954;-85
2023/12/11 09:03:27;;;;;;;185.30;77.50;;;;;;;6.10;99.64;98662.09;682584;1260;139829;-86
2023/12/11 09:19:05;;;;;;;106.70;41.10;;;;;;;6.19;99.07;98637.34;682697;1261;139373;-86
2023/12/11 09:34:41;;;;;;;161.40;52.00;;;;;;;6.15;98.32;98612.50;682647;1262;139883;-87
2023/12/11 09:50:19;;;;;;;;;;;;;;;6.11;97.74;98591.59;682423;1262;139519;-90
2023/12/11 10:05:56;;;;;;;65.40;36.80;;;;;;;6.06;97.64;98569.49;682845;1261;125704;-89
2023/12/11 10:21:46;;;;;;;133.00;40.40;;;;;;;5.98;99.39;98548.55;682623;1260;139269;-89
2023/12/11 10:37:25;;;;;;;121.40;44.30;;;;;;;6.19;99.68;98529.30;682507;1260;138957;-87
2023/12/11 10:53:24;;;;;;;101.80;50.90;;;;;;;6.34;99.15;98514.73;682738;1262;139206;-88
2023/12/11 11:09:18;;;;;;;84.60;41.80;;;;;;;6.35;99.47;98499.44;682628;1262;138998;-88
2023/12/11 11:24:55;;;;;;;113.90;47.50;;;;;;;6.52;99.03;98485.13;682895;1263;139096;-88
2023/12/11 11:40:39;;;;;;;120.10;47.50;;;;;;;6.55;99.71;98475.25;682786;1262;139011;-89
2023/12/11 11:56:17;;;;;;;40.70;23.30;;;;;;;6.45;100.00;98471.05;682823;1265;140190;-90
2023/12/11 12:12:15;;;;;;;121.70;64.70;;;;;;;6.86;100.00;98465.08;683140;1262;139228;-92
2023/12/11 12:28:01;;;;;;;54.10;27.60;;;;;;;7.06;100.00;98447.70;682902;1264;139530;-92
2023/12/11 12:43:44;;;;;;;48.50;27.40;;;;;;;7.33;100.00;98436.66;682824;1263;139465;-92
2023/12/11 12:59:21;;;;;;;52.40;26.80;;;;;;;7.64;100.00;98438.84;682841;1263;139227;-90
2023/12/11 13:15:00;;;;;;;84.80;38.70;;;;;;;7.92;100.00;98456.90;682807;1262;139016;-90
2023/12/11 13:30:37;;;;;;;77.80;38.60;;;;;;;7.85;100.00;98467.90;675182;1262;10135938;-90
2023/12/11 13:46:14;;;;;;;94.90;47.00;;;;;;;7.94;100.00;98466.77;683258;1262;139504;-91
2023/12/11 14:01:52;;;;;;;110.20;44.00;;;;;;;8.06;100.00;98479.85;682683;1260;139128;-90
2023/12/11 14:19:30;;;;;;;73.50;32.50;;;;;;;8.27;100.00;98480.60;657313;1289;545562;-90
2023/12/11 14:35:07;;;;;;;53.80;27.40;;;;;;;8.26;100.00;98499.88;673956;1263;138874;-90
2023/12/11 14:50:45;;;;;;;46.20;22.50;;;;;;;8.18;100.00;98514.55;677132;1264;139140;-89
2023/12/11 15:06:22;;;;;;;38.30;21.40;;;;;;;8.23;100.00;98526.12;675917;1263;138605;-90
2023/12/11 15:22:00;;;;;;;36.00;19.40;;;;;;;8.26;100.00;98530.82;674805;1264;138541;-90
2023/12/11 15:37:38;;;;;;;44.90;20.10;;;;;;;8.39;100.00;98544.93;674724;1260;139345;-88
2023/12/11 15:53:18;;;;;;;45.10;24.30;;;;;;;8.56;100.00;98539.18;672366;1265;138015;-90
2023/12/11 16:08:57;;;;;;;99.20;44.80;;;;;;;8.46;100.00;98542.61;674010;1275;138432;-91
2023/12/11 16:24:40;;;;;;;89.90;36.00;;;;;;;8.51;100.00;98542.02;677578;1278;138455;-91
2023/12/11 16:40:20;;;;;;;284.80;101.10;;;;;;;7.99;100.00;98550.70;673735;1263;138570;-90
2023/12/11 16:55:57;;;;;;;89.70;43.00;;;;;;;7.52;100.00;98552.00;676075;1264;139430;-89
2023/12/11 17:11:43;;;;;;;100.10;48.40;;;;;;;6.98;100.00;98561.66;675483;1263;139241;-89
2023/12/11 17:27:20;;;;;;;85.40;37.10;;;;;;;7.04;100.00;98560.59;676753;1263;140123;-89
2023/12/11 17:42:58;;;;;;;226.10;92.10;;;;;;;7.10;100.00;98563.59;677604;1263;139236;-90
2023/12/11 17:58:41;;;;;;;214.60;93.90;;;;;;;7.09;100.00;98561.30;673853;1266;138633;-90
2023/12/11 18:14:18;;;;;;;211.70;81.50;;;;;;;6.94;100.00;98571.48;676814;1266;139122;-89
2023/12/11 18:29:55;;;;;;;203.50;81.90;;;;;;;6.87;100.00;98569.71;677082;1262;139090;-90
2023/12/11 18:45:31;;;;;;;138.10;64.10;;;;;;;6.98;100.00;98573.85;674569;1268;138708;-89
2023/12/11 19:01:09;;;;;;;170.60;74.50;;;;;;;7.45;100.00;98581.32;676111;1262;139628;-88
2023/12/11 19:16:48;;;;;;;149.40;59.20;;;;;;;7.39;100.00;98591.27;676003;1263;139150;-90
2023/12/11 19:32:27;;;;;;;194.90;79.30;;;;;;;7.30;100.00;98596.04;678764;1263;139976;-89
2023/12/11 19:48:05;;;;;;;184.10;63.60;;;;;;;7.23;100.00;98609.95;677572;1263;138965;-90
2023/12/11 20:03:48;;;;;;;201.30;72.40;;;;;;;7.20;100.00;98618.41;679388;1260;139007;-89
2023/12/11 20:19:25;;;;;;;204.00;66.60;;;;;;;7.18;100.00;98634.67;677942;1260;139841;-89
2023/12/11 20:35:04;;;;;;;159.20;57.20;;;;;;;7.22;100.00;98645.23;678045;1263;138376;-90
2023/12/11 20:50:41;;;;;;;191.70;68.00;;;;;;;7.15;100.00;98651.98;678475;1263;139849;-88
2023/12/11 21:06:19;;;;;;;327.90;103.40;;;;;;;7.07;100.00;98666.96;680952;1263;139217;-88
2023/12/11 21:21:58;;;;;;;297.80;96.40;;;;;;;7.04;100.00;98681.58;679755;1272;139605;-90
2023/12/11 21:37:37;;;;;;;139.20;50.30;;;;;;;6.96;100.00;98698.39;681593;1260;140677;-90
2023/12/11 21:53:14;;;;;;;168.50;56.80;;;;;;;6.87;100.00;98705.85;679443;1263;139288;-89
2023/12/11 22:08:51;;;;;;;125.20;47.90;;;;;;;6.84;100.00;98713.55;676266;1262;139556;-88
2023/12/11 22:24:29;;;;;;;184.30;64.10;;;;;;;6.82;100.00;98735.81;677438;1261;140163;-90
2023/12/11 22:40:06;;;;;;;139.10;49.60;;;;;;;6.84;100.00;98750.23;673502;1261;139788;-89
2023/12/11 22:55:43;;;;;;;138.90;42.10;;;;;;;6.77;100.00;98764.70;677293;1266;139891;-89
2023/12/11 23:11:20;;;;;;;252.80;63.80;;;;;;;6.64;100.00;98770.69;678896;1262;139491;-88
2023/12/11 23:26:58;;;;;;;177.10;43.70;;;;;;;6.65;100.00;98777.21;675212;1267;138964;-89
2023/12/11 23:42:35;;;;;;;156.90;38.90;;;;;;;6.57;100.00;98786.21;679524;1263;138412;-89
2023/12/11 23:58:12;;;;;;;218.70;56.30;;;;;;;6.50;100.00;98797.77;677726;1258;139491;-89
